Snow/Ice From: 16-12-2017 16:00 Until: 17-12-2017 16:00 warning for: Snow/Ice Level: Yellow info button

Although rather usual in this region, locally or potentially dangerous phenomena are expected. (such as local winds, summer thunderstorms, rising streams or high waves) Be aware and pay attention to the latest weather updates, especially if you carry out activities exposed to weather or close to a stream or shoreline. 


Meteo18 Weather Cam more information Meteo18 Weather Cam


Thunder radar more information blitzortung!


warning for Snow/Ice more information rain snow radar


Visit our other weather sites:

Template documentation
and downloads

And another site



Weather Underground History page Text

Daily Summary for June 8, 2017 Units:  Metric    English   Both
« Previous Day
Next Day »
Daily Weekly Monthly Yearly Custom
  High: Low: Average:
Temperature: 27.3 °C 8.7 °C 18.1 °C
Dew Point: 16.3 °C 7.8 °C 11.9 °C
Humidity: 96 % 42 % 70 %
Wind Speed: 16.1 km/h 0.0 km/h 2.2 km/h
Wind Gust: 19.3 km/h - -
Wind:- - SSE
Pressure: 1021.6 hPa 1011.7 hPa -
Precipitation: 0.0 mm    
Historical Graphs
 
 
Tabular Data for June 8, 2017
Time Temperature Dew Point Pressure Wind Wind Speed Wind Gust Humidity Rainfall Rate (Hourly)
00:02 11.6 °C 9.5 °C 1021.6 hPa Calm     87 % 0.0 mm
00:07 11.4 °C 9.3 °C 1021.6 hPa Calm     87 % 0.0 mm
00:12 11.3 °C 9.2 °C 1021.6 hPa Calm     87 % 0.0 mm
00:17 11.2 °C 9.1 °C 1021.6 hPa Calm     87 % 0.0 mm
00:22 11.2 °C 9.3 °C 1021.6 hPa Calm     88 % 0.0 mm
00:27 11.2 °C 9.3 °C 1021.2 hPa Calm     88 % 0.0 mm
00:32 11.2 °C 9.1 °C 1021.6 hPa Calm     87 % 0.0 mm
00:42 11.1 °C 9.0 °C 1021.6 hPa Calm     87 % 0.0 mm
00:52 11.2 °C 9.1 °C 1021.2 hPa Calm     87 % 0.0 mm
00:57 11.1 °C 9.0 °C 1021.2 hPa Calm     87 % 0.0 mm
01:02 11.1 °C 9.2 °C 1021.2 hPa Calm     88 % 0.0 mm
01:07 11.1 °C 9.2 °C 1021.2 hPa Calm     88 % 0.0 mm
01:12 11.0 °C 9.1 °C 1021.2 hPa Calm     88 % 0.0 mm
01:17 10.9 °C 9.0 °C 1021.2 hPa Calm     88 % 0.0 mm
01:22 10.9 °C 9.2 °C 1021.2 hPa Calm     89 % 0.0 mm
01:27 10.9 °C 9.2 °C 1020.9 hPa Calm     89 % 0.0 mm
01:32 10.9 °C 9.2 °C 1020.9 hPa Calm     89 % 0.0 mm
01:37 10.9 °C 9.2 °C 1020.9 hPa Calm     89 % 0.0 mm
01:42 10.9 °C 9.2 °C 1020.9 hPa Calm     89 % 0.0 mm
01:47 10.8 °C 9.1 °C 1020.9 hPa Calm     89 % 0.0 mm
01:52 10.7 °C 9.0 °C 1020.9 hPa Calm     89 % 0.0 mm
01:57 10.6 °C 8.9 °C 1020.9 hPa Calm     89 % 0.0 mm
02:02 10.6 °C 8.9 °C 1020.9 hPa Calm     89 % 0.0 mm
02:07 10.4 °C 8.8 °C 1020.9 hPa Calm     90 % 0.0 mm
02:12 10.4 °C 8.8 °C 1020.9 hPa Calm     90 % 0.0 mm
02:17 10.3 °C 8.7 °C 1020.9 hPa Calm     90 % 0.0 mm
02:22 10.3 °C 8.7 °C 1020.9 hPa Calm     90 % 0.0 mm
02:27 10.2 °C 8.8 °C 1020.9 hPa Calm     91 % 0.0 mm
02:32 10.1 °C 8.7 °C 1020.5 hPa Calm     91 % 0.0 mm
02:37 9.9 °C 8.5 °C 1020.5 hPa Calm     91 % 0.0 mm
02:42 9.9 °C 8.7 °C 1020.5 hPa Calm     92 % 0.0 mm
02:47 9.9 °C 8.7 °C 1020.5 hPa Calm     92 % 0.0 mm
02:52 9.9 °C 8.8 °C 1020.5 hPa Calm     93 % 0.0 mm
02:57 10.1 °C 8.9 °C 1020.5 hPa Calm     92 % 0.0 mm
03:02 10.1 °C 8.9 °C 1020.5 hPa Calm     92 % 0.0 mm
03:07 10.2 °C 9.0 °C 1020.5 hPa Calm     92 % 0.0 mm
03:12 10.2 °C 9.0 °C 1020.5 hPa Calm     92 % 0.0 mm
03:17 10.0 °C 8.8 °C 1020.5 hPa Calm     92 % 0.0 mm
03:22 9.9 °C 8.7 °C 1020.5 hPa Calm     92 % 0.0 mm
03:27 9.8 °C 8.6 °C 1020.2 hPa Calm     92 % 0.0 mm
03:32 9.7 °C 8.6 °C 1020.2 hPa Calm     93 % 0.0 mm
03:37 9.8 °C 8.7 °C 1020.2 hPa Calm     93 % 0.0 mm
03:42 9.8 °C 8.6 °C 1020.2 hPa Calm     92 % 0.0 mm
03:47 9.7 °C 8.5 °C 1020.2 hPa Calm     92 % 0.0 mm
03:52 9.6 °C 8.5 °C 1020.2 hPa Calm     93 % 0.0 mm
03:57 9.7 °C 8.6 °C 1020.2 hPa Calm     93 % 0.0 mm
04:02 9.6 °C 8.5 °C 1020.2 hPa Calm     93 % 0.0 mm
04:07 9.4 °C 8.3 °C 1020.2 hPa Calm     93 % 0.0 mm
04:12 9.3 °C 8.2 °C 1020.2 hPa Calm     93 % 0.0 mm
04:17 9.2 °C 8.1 °C 1020.2 hPa Calm     93 % 0.0 mm
04:22 9.1 °C 8.0 °C 1020.2 hPa Calm     93 % 0.0 mm
04:27 9.1 °C 8.0 °C 1020.2 hPa Calm     93 % 0.0 mm
04:32 9.0 °C 7.9 °C 1020.2 hPa Calm     93 % 0.0 mm
04:37 8.9 °C 7.8 °C 1019.9 hPa Calm     93 % 0.0 mm
04:42 8.8 °C 7.9 °C 1019.9 hPa Calm     94 % 0.0 mm
04:47 8.9 °C 8.0 °C 1019.9 hPa Calm     94 % 0.0 mm
04:52 8.9 °C 8.0 °C 1019.9 hPa Calm     94 % 0.0 mm
05:02 8.9 °C 8.0 °C 1019.9 hPa Calm     94 % 0.0 mm
05:07 8.8 °C 7.9 °C 1019.9 hPa Calm     94 % 0.0 mm
05:12 8.8 °C 7.9 °C 1019.9 hPa Calm     94 % 0.0 mm
05:17 8.7 °C 7.8 °C 1019.9 hPa Calm     94 % 0.0 mm
05:22 8.7 °C 7.9 °C 1019.9 hPa Calm     95 % 0.0 mm
05:32 8.7 °C 7.9 °C 1019.9 hPa Calm     95 % 0.0 mm
05:37 8.7 °C 7.9 °C 1019.9 hPa Calm     95 % 0.0 mm
05:42 8.7 °C 7.9 °C 1019.9 hPa Calm     95 % 0.0 mm
05:47 8.8 °C 8.0 °C 1019.9 hPa Calm     95 % 0.0 mm
05:52 8.8 °C 8.0 °C 1019.9 hPa Calm     95 % 0.0 mm
06:02 8.8 °C 8.0 °C 1019.9 hPa Calm     95 % 0.0 mm
06:12 8.8 °C 8.0 °C 1019.9 hPa Calm     95 % 0.0 mm
06:17 8.8 °C 8.0 °C 1019.9 hPa Calm     95 % 0.0 mm
06:22 8.8 °C 8.0 °C 1019.9 hPa Calm     95 % 0.0 mm
06:27 8.8 °C 8.0 °C 1019.9 hPa Calm     95 % 0.0 mm
06:32 8.8 °C 8.0 °C 1019.9 hPa Calm     95 % 0.0 mm
06:37 9.0 °C 8.2 °C 1019.5 hPa Calm     95 % 0.0 mm
06:42 9.2 °C 8.4 °C 1019.5 hPa Calm     95 % 0.0 mm
06:47 9.4 °C 8.8 °C 1019.5 hPa Calm     96 % 0.0 mm
06:52 9.3 °C 8.5 °C 1019.9 hPa Calm     95 % 0.0 mm
06:57 9.2 °C 8.4 °C 1019.9 hPa Calm     95 % 0.0 mm
07:02 9.3 °C 8.5 °C 1019.9 hPa Calm     95 % 0.0 mm
07:07 9.6 °C 8.8 °C 1019.5 hPa Calm     95 % 0.0 mm
07:12 10.2 °C 9.6 °C 1019.9 hPa Calm     96 % 0.0 mm
07:17 10.6 °C 10.0 °C 1019.9 hPa Calm     96 % 0.0 mm
07:22 10.9 °C 10.1 °C 1019.9 hPa Calm     95 % 0.0 mm
07:32 11.2 °C 10.3 °C 1019.5 hPa Calm     94 % 0.0 mm
07:37 11.3 °C 10.4 °C 1019.5 hPa Calm     94 % 0.0 mm
07:42 11.6 °C 10.5 °C 1019.5 hPa Calm     93 % 0.0 mm
07:47 11.8 °C 10.7 °C 1019.5 hPa Calm     93 % 0.0 mm
07:52 11.9 °C 10.5 °C 1019.5 hPa Calm     91 % 0.0 mm
07:57 12.3 °C 10.9 °C 1019.2 hPa Calm     91 % 0.0 mm
08:02 12.6 °C 10.8 °C 1019.2 hPa Calm     89 % 0.0 mm
08:07 12.8 °C 10.9 °C 1019.2 hPa Calm     88 % 0.0 mm
08:12 12.9 °C 10.8 °C 1019.2 hPa Calm     87 % 0.0 mm
08:17 13.2 °C 11.1 °C 1019.2 hPa Calm   1.6 km/h 87 % 0.0 mm
08:22 13.4 °C 11.1 °C 1019.2 hPa Calm   1.6 km/h 86 % 0.0 mm
08:27 13.7 °C 11.2 °C 1019.2 hPa Calm   3.2 km/h 85 % 0.0 mm
08:32 13.8 °C 11.1 °C 1019.5 hPa Calm   3.2 km/h 84 % 0.0 mm
08:37 14.2 °C 11.5 °C 1019.2 hPa Calm   3.2 km/h 84 % 0.0 mm
08:42 14.4 °C 11.5 °C 1019.5 hPa Calm   3.2 km/h 83 % 0.0 mm
08:52 14.9 °C 11.9 °C 1019.5 hPa Calm   3.2 km/h 82 % 0.0 mm
08:57 14.9 °C 11.7 °C 1019.5 hPa Calm   9.7 km/h 81 % 0.0 mm
09:02 15.2 °C 11.8 °C 1019.5 hPa SW 1.6 km/h 9.7 km/h 80 % 0.0 mm
09:12 15.8 °C 12.0 °C 1019.2 hPa Calm   6.4 km/h 78 % 0.0 mm
09:17 16.1 °C 12.3 °C 1019.2 hPa Calm   6.4 km/h 78 % 0.0 mm
09:22 16.6 °C 12.4 °C 1019.2 hPa SSE 1.6 km/h 6.4 km/h 76 % 0.0 mm
09:27 16.8 °C 11.9 °C 1019.2 hPa SSE 1.6 km/h 6.4 km/h 73 % 0.0 mm
09:32 17.1 °C 12.4 °C 1019.2 hPa SE 1.6 km/h 6.4 km/h 74 % 0.0 mm
09:37 17.2 °C 11.9 °C 1019.2 hPa SW 1.6 km/h 9.7 km/h 71 % 0.0 mm
09:42 17.4 °C 12.3 °C 1019.2 hPa SSW 4.8 km/h 9.7 km/h 72 % 0.0 mm
09:47 17.6 °C 12.1 °C 1019.2 hPa SSE 3.2 km/h 9.7 km/h 70 % 0.0 mm
09:52 18.1 °C 12.8 °C 1019.2 hPa Calm   9.7 km/h 71 % 0.0 mm
09:57 18.3 °C 12.3 °C 1019.2 hPa SW 1.6 km/h 8.0 km/h 68 % 0.0 mm
10:02 18.2 °C 12.2 °C 1019.2 hPa SE 4.8 km/h 11.3 km/h 68 % 0.0 mm
10:12 18.4 °C 11.9 °C 1019.2 hPa SW 11.3 km/h 11.3 km/h 66 % 0.0 mm
10:17 18.5 °C 12.0 °C 1019.2 hPa SW 3.2 km/h 11.3 km/h 66 % 0.0 mm
10:22 18.8 °C 12.3 °C 1018.8 hPa SW 1.6 km/h 12.9 km/h 66 % 0.0 mm
10:32 19.3 °C 11.3 °C 1018.8 hPa SSE 3.2 km/h 16.1 km/h 60 % 0.0 mm
10:42 19.4 °C 11.4 °C 1018.8 hPa SE 6.4 km/h 16.1 km/h 60 % 0.0 mm
10:52 19.8 °C 11.8 °C 1018.5 hPa East 3.2 km/h 14.5 km/h 60 % 0.0 mm
11:02 20.2 °C 11.7 °C 1018.5 hPa ESE 11.3 km/h 17.7 km/h 58 % 0.0 mm
11:12 20.6 °C 12.0 °C 1018.5 hPa SW 8.0 km/h 17.7 km/h 58 % 0.0 mm
11:17 20.8 °C 11.7 °C 1018.5 hPa SW 3.2 km/h 16.1 km/h 56 % 0.0 mm
11:22 20.7 °C 11.1 °C 1018.5 hPa SW 6.4 km/h 16.1 km/h 54 % 0.0 mm
11:27 20.9 °C 12.8 °C 1018.2 hPa South 1.6 km/h 16.1 km/h 60 % 0.0 mm
11:32 20.9 °C 12.3 °C 1018.2 hPa East 8.0 km/h 19.3 km/h 58 % 0.0 mm
11:37 20.9 °C 12.8 °C 1018.2 hPa SSW 6.4 km/h 19.3 km/h 60 % 0.0 mm
11:42 21.2 °C 12.1 °C 1018.2 hPa SSE 4.8 km/h 19.3 km/h 56 % 0.0 mm
11:47 21.6 °C 13.5 °C 1018.2 hPa East 9.7 km/h 16.1 km/h 60 % 0.0 mm
11:52 21.3 °C 11.3 °C 1017.8 hPa SSE 3.2 km/h 16.1 km/h 53 % 0.0 mm
11:57 21.5 °C 11.5 °C 1017.8 hPa SSW 4.8 km/h 16.1 km/h 53 % 0.0 mm
12:02 21.9 °C 12.7 °C 1017.8 hPa ESE 11.3 km/h 16.1 km/h 56 % 0.0 mm
12:07 21.9 °C 12.5 °C 1017.8 hPa SSW 4.8 km/h 16.1 km/h 55 % 0.0 mm
12:12 21.9 °C 11.6 °C 1017.8 hPa SSW 9.7 km/h 16.1 km/h 52 % 0.0 mm
12:17 21.9 °C 12.2 °C 1017.8 hPa ESE 9.7 km/h 17.7 km/h 54 % 0.0 mm
12:22 21.9 °C 11.9 °C 1017.8 hPa SSW 3.2 km/h 17.7 km/h 53 % 0.0 mm
12:27 22.2 °C 12.4 °C 1017.8 hPa SE 4.8 km/h 17.7 km/h 54 % 0.0 mm
12:32 22.4 °C 12.1 °C 1017.8 hPa South 6.4 km/h 16.1 km/h 52 % 0.0 mm
12:37 22.4 °C 11.8 °C 1017.8 hPa SE 9.7 km/h 17.7 km/h 51 % 0.0 mm
12:42 22.4 °C 12.6 °C 1017.8 hPa SW 6.4 km/h 17.7 km/h 54 % 0.0 mm
12:47 22.6 °C 11.9 °C 1017.8 hPa SE 3.2 km/h 17.7 km/h 51 % 0.0 mm
12:52 22.7 °C 11.7 °C 1017.8 hPa SE 3.2 km/h 17.7 km/h 50 % 0.0 mm
12:57 23.0 °C 12.3 °C 1017.8 hPa WNW 3.2 km/h 17.7 km/h 51 % 0.0 mm
13:02 23.0 °C 11.7 °C 1017.8 hPa SSE 4.8 km/h 16.1 km/h 49 % 0.0 mm
13:07 23.1 °C 12.1 °C 1017.8 hPa ESE 3.2 km/h 16.1 km/h 50 % 0.0 mm
13:12 22.9 °C 11.6 °C 1017.8 hPa ESE 6.4 km/h 14.5 km/h 49 % 0.0 mm
13:17 23.1 °C 12.1 °C 1017.8 hPa SE 3.2 km/h 14.5 km/h 50 % 0.0 mm
13:22 23.3 °C 12.0 °C 1017.5 hPa SE 4.8 km/h 17.7 km/h 49 % 0.0 mm
13:27 23.3 °C 11.7 °C 1017.5 hPa ENE 4.8 km/h 17.7 km/h 48 % 0.0 mm
13:32 23.4 °C 12.4 °C 1017.5 hPa SSE 4.8 km/h 17.7 km/h 50 % 0.0 mm
13:37 23.7 °C 12.7 °C 1017.5 hPa East 4.8 km/h 17.7 km/h 50 % 0.0 mm
13:42 23.8 °C 11.8 °C 1017.5 hPa SW 6.4 km/h 19.3 km/h 47 % 0.0 mm
13:47 23.5 °C 12.2 °C 1017.5 hPa South 11.3 km/h 19.3 km/h 49 % 0.0 mm
13:52 23.6 °C 12.3 °C 1017.5 hPa South 9.7 km/h 17.7 km/h 49 % 0.0 mm
14:02 24.0 °C 12.0 °C 1017.2 hPa SSW 11.3 km/h 16.1 km/h 47 % 0.0 mm
14:07 24.0 °C 12.9 °C 1017.2 hPa South 3.2 km/h 16.1 km/h 50 % 0.0 mm
14:12 24.4 °C 12.0 °C 1017.2 hPa SW 4.8 km/h 14.5 km/h 46 % 0.0 mm
14:17 24.5 °C 12.8 °C 1017.2 hPa SSW 6.4 km/h 14.5 km/h 48 % 0.0 mm
14:22 24.6 °C 12.5 °C 1017.2 hPa ESE 16.1 km/h 16.1 km/h 47 % 0.0 mm
14:32 24.3 °C 12.6 °C 1017.2 hPa SSW 1.6 km/h 16.1 km/h 48 % 0.0 mm
14:37 24.8 °C 12.7 °C 1016.8 hPa SSE 3.2 km/h 16.1 km/h 47 % 0.0 mm
14:42 24.9 °C 12.1 °C 1016.8 hPa South 6.4 km/h 16.1 km/h 45 % 0.0 mm
14:47 24.9 °C 13.1 °C 1016.8 hPa South 4.8 km/h 16.1 km/h 48 % 0.0 mm
14:52 25.2 °C 13.1 °C 1016.8 hPa SSW 8.0 km/h 16.1 km/h 47 % 0.0 mm
14:57 25.2 °C 12.8 °C 1016.8 hPa SSW 4.8 km/h 14.5 km/h 46 % 0.0 mm
15:02 25.4 °C 13.3 °C 1016.5 hPa SSW 3.2 km/h 12.9 km/h 47 % 0.0 mm
15:07 25.4 °C 13.3 °C 1016.5 hPa SSW 8.0 km/h 14.5 km/h 47 % 0.0 mm
15:12 25.5 °C 14.0 °C 1016.5 hPa East 6.4 km/h 16.1 km/h 49 % 0.0 mm
15:17 25.3 °C 12.8 °C 1016.1 hPa SE 8.0 km/h 16.1 km/h 46 % 0.0 mm
15:22 25.4 °C 12.9 °C 1016.5 hPa SW 4.8 km/h 16.1 km/h 46 % 0.0 mm
15:27 25.4 °C 13.6 °C 1016.1 hPa SW 8.0 km/h 16.1 km/h 48 % 0.0 mm
15:32 25.7 °C 13.5 °C 1016.1 hPa Calm   16.1 km/h 47 % 0.0 mm
15:37 25.8 °C 13.0 °C 1016.1 hPa ENE 1.6 km/h 14.5 km/h 45 % 0.0 mm
15:42 25.8 °C 14.0 °C 1016.1 hPa Calm   14.5 km/h 48 % 0.0 mm
15:47 25.8 °C 13.3 °C 1016.1 hPa SSW 6.4 km/h 11.3 km/h 46 % 0.0 mm
15:52 25.9 °C 13.1 °C 1016.1 hPa ESE 3.2 km/h 11.3 km/h 45 % 0.0 mm
15:57 26.1 °C 13.9 °C 1016.1 hPa ESE 6.4 km/h 11.3 km/h 47 % 0.0 mm
16:02 25.9 °C 13.1 °C 1015.8 hPa SSW 1.6 km/h 12.9 km/h 45 % 0.0 mm
16:12 26.0 °C 13.5 °C 1015.8 hPa SW 4.8 km/h 14.5 km/h 46 % 0.0 mm
16:17 26.1 °C 12.9 °C 1015.8 hPa SW 3.2 km/h 14.5 km/h 44 % 0.0 mm
16:22 26.0 °C 13.8 °C 1015.5 hPa ESE 9.7 km/h 12.9 km/h 47 % 0.0 mm
16:27 26.1 °C 13.6 °C 1015.5 hPa SW 3.2 km/h 14.5 km/h 46 % 0.0 mm
16:32 26.3 °C 14.4 °C 1015.5 hPa South 8.0 km/h 14.5 km/h 48 % 0.0 mm
16:37 26.5 °C 13.6 °C 1015.1 hPa ESE 4.8 km/h 12.9 km/h 45 % 0.0 mm
16:42 26.7 °C 13.8 °C 1015.1 hPa SE 3.2 km/h 12.9 km/h 45 % 0.0 mm
16:47 26.8 °C 14.2 °C 1015.1 hPa ESE 6.4 km/h 12.9 km/h 46 % 0.0 mm
16:52 26.9 °C 14.0 °C 1015.1 hPa SSW 8.0 km/h 12.9 km/h 45 % 0.0 mm
16:57 26.6 °C 13.0 °C 1015.1 hPa Calm   12.9 km/h 43 % 0.0 mm
17:02 26.9 °C 13.6 °C 1015.1 hPa SW 4.8 km/h 12.9 km/h 44 % 0.0 mm
17:12 26.9 °C 12.9 °C 1015.1 hPa South 4.8 km/h 12.9 km/h 42 % 0.0 mm
17:17 26.8 °C 13.5 °C 1014.8 hPa ESE 9.7 km/h 11.3 km/h 44 % 0.0 mm
17:22 26.8 °C 13.9 °C 1014.8 hPa ESE 3.2 km/h 11.3 km/h 45 % 0.0 mm
17:27 26.8 °C 13.9 °C 1014.8 hPa ESE 8.0 km/h 11.3 km/h 45 % 0.0 mm
17:32 26.9 °C 14.6 °C 1014.8 hPa SE 4.8 km/h 12.9 km/h 47 % 0.0 mm
17:37 27.3 °C 14.7 °C 1014.4 hPa South 3.2 km/h 12.9 km/h 46 % 0.0 mm
17:42 27.2 °C 14.2 °C 1014.4 hPa South 3.2 km/h 17.7 km/h 45 % 0.0 mm
17:47 27.2 °C 14.2 °C 1014.4 hPa SW 1.6 km/h 17.7 km/h 45 % 0.0 mm
17:52 27.1 °C 13.4 °C 1014.4 hPa SSW 8.0 km/h 17.7 km/h 43 % 0.0 mm
17:57 27.0 °C 13.4 °C 1014.4 hPa SE 8.0 km/h 14.5 km/h 43 % 0.0 mm
18:02 27.0 °C 14.1 °C 1014.4 hPa South 4.8 km/h 14.5 km/h 45 % 0.0 mm
18:07 27.1 °C 13.8 °C 1014.4 hPa South 4.8 km/h 12.9 km/h 44 % 0.0 mm
18:12 27.1 °C 13.8 °C 1014.4 hPa ESE 14.5 km/h 14.5 km/h 44 % 0.0 mm
18:17 26.9 °C 14.0 °C 1014.4 hPa SSW 1.6 km/h 17.7 km/h 45 % 0.0 mm
18:22 26.9 °C 14.3 °C 1014.4 hPa SSE 1.6 km/h 17.7 km/h 46 % 0.0 mm
18:32 26.6 °C 14.0 °C 1014.1 hPa South 1.6 km/h 11.3 km/h 46 % 0.0 mm
18:42 27.1 °C 14.8 °C 1013.8 hPa SE 6.4 km/h 11.3 km/h 47 % 0.0 mm
18:47 26.8 °C 14.9 °C 1013.8 hPa ESE 4.8 km/h 11.3 km/h 48 % 0.0 mm
18:52 26.7 °C 14.5 °C 1013.8 hPa South 3.2 km/h 11.3 km/h 47 % 0.0 mm
18:57 26.5 °C 14.3 °C 1013.8 hPa SW 3.2 km/h 11.3 km/h 47 % 0.0 mm
19:02 26.3 °C 14.7 °C 1013.8 hPa Calm   8.0 km/h 49 % 0.0 mm
19:07 26.1 °C 15.2 °C 1013.8 hPa East 3.2 km/h 8.0 km/h 51 % 0.0 mm
19:12 25.9 °C 15.6 °C 1013.8 hPa ESE 1.6 km/h 8.0 km/h 53 % 0.0 mm
19:22 25.4 °C 15.4 °C 1013.8 hPa SSE 4.8 km/h 8.0 km/h 54 % 0.0 mm
19:27 25.3 °C 15.9 °C 1013.8 hPa Calm   9.7 km/h 56 % 0.0 mm
19:32 25.2 °C 16.3 °C 1013.8 hPa ESE 1.6 km/h 9.7 km/h 58 % 0.0 mm
19:37 24.9 °C 15.8 °C 1013.8 hPa ESE 3.2 km/h 9.7 km/h 57 % 0.0 mm
19:42 24.7 °C 16.1 °C 1013.4 hPa ESE 1.6 km/h 8.0 km/h 59 % 0.0 mm
19:47 24.4 °C 15.9 °C 1013.4 hPa Calm   8.0 km/h 59 % 0.0 mm
19:52 24.2 °C 16.2 °C 1013.4 hPa ESE 3.2 km/h 4.8 km/h 61 % 0.0 mm
19:57 23.9 °C 16.2 °C 1013.4 hPa Calm   6.4 km/h 62 % 0.0 mm
20:02 23.7 °C 16.0 °C 1013.4 hPa Calm   6.4 km/h 62 % 0.0 mm
20:07 23.6 °C 16.1 °C 1013.4 hPa Calm   6.4 km/h 63 % 0.0 mm
20:12 23.6 °C 16.1 °C 1013.4 hPa Calm   4.8 km/h 63 % 0.0 mm
20:17 23.6 °C 15.9 °C 1013.4 hPa Calm   3.2 km/h 62 % 0.0 mm
20:22 23.6 °C 15.6 °C 1013.4 hPa SE 1.6 km/h 3.2 km/h 61 % 0.0 mm
20:32 23.7 °C 16.0 °C 1013.4 hPa Calm   3.2 km/h 62 % 0.0 mm
20:37 23.6 °C 15.9 °C 1013.4 hPa Calm   3.2 km/h 62 % 0.0 mm
20:42 23.4 °C 16.0 °C 1013.4 hPa Calm   1.6 km/h 63 % 0.0 mm
20:47 23.2 °C 16.0 °C 1013.4 hPa Calm     64 % 0.0 mm
20:52 23.1 °C 16.2 °C 1013.1 hPa Calm     65 % 0.0 mm
20:57 23.0 °C 15.6 °C 1013.1 hPa Calm     63 % 0.0 mm
21:02 22.9 °C 16.0 °C 1013.1 hPa Calm     65 % 0.0 mm
21:12 22.6 °C 16.2 °C 1013.1 hPa Calm     67 % 0.0 mm
21:17 22.4 °C 15.7 °C 1013.1 hPa Calm     66 % 0.0 mm
21:22 22.1 °C 15.7 °C 1012.8 hPa Calm     67 % 0.0 mm
21:27 21.8 °C 15.4 °C 1012.8 hPa Calm     67 % 0.0 mm
21:32 21.7 °C 15.5 °C 1012.8 hPa Calm     68 % 0.0 mm
21:37 21.4 °C 15.2 °C 1012.8 hPa Calm     68 % 0.0 mm
21:42 21.3 °C 15.2 °C 1012.8 hPa Calm     68 % 0.0 mm
21:47 21.1 °C 15.0 °C 1012.8 hPa Calm     68 % 0.0 mm
21:52 20.9 °C 15.2 °C 1012.8 hPa SE 1.6 km/h   70 % 0.0 mm
21:57 20.4 °C 15.4 °C 1012.8 hPa Calm   1.6 km/h 73 % 0.0 mm
22:02 20.1 °C 14.9 °C 1012.8 hPa Calm   1.6 km/h 72 % 0.0 mm
22:07 19.9 °C 14.7 °C 1012.8 hPa WNW 1.6 km/h 1.6 km/h 72 % 0.0 mm
22:12 19.7 °C 14.7 °C 1012.8 hPa Calm   1.6 km/h 73 % 0.0 mm
22:17 19.6 °C 14.8 °C 1012.8 hPa Calm   1.6 km/h 74 % 0.0 mm
22:22 19.8 °C 15.2 °C 1012.8 hPa NNE 3.2 km/h 3.2 km/h 75 % 0.0 mm
22:32 19.8 °C 14.8 °C 1012.8 hPa Calm   3.2 km/h 73 % 0.0 mm
22:37 19.6 °C 15.0 °C 1012.8 hPa Calm   3.2 km/h 75 % 0.0 mm
22:42 19.6 °C 15.0 °C 1012.4 hPa Calm   1.6 km/h 75 % 0.0 mm
22:47 19.6 °C 15.0 °C 1012.4 hPa Calm   1.6 km/h 75 % 0.0 mm
22:52 19.3 °C 14.8 °C 1012.4 hPa Calm   1.6 km/h 75 % 0.0 mm
22:57 19.2 °C 14.7 °C 1012.1 hPa Calm   1.6 km/h 75 % 0.0 mm
23:02 19.2 °C 14.9 °C 1012.1 hPa Calm   1.6 km/h 76 % 0.0 mm
23:07 19.1 °C 14.6 °C 1012.1 hPa Calm   1.6 km/h 75 % 0.0 mm
23:12 19.1 °C 14.6 °C 1012.1 hPa Calm   1.6 km/h 75 % 0.0 mm
23:17 18.9 °C 14.6 °C 1012.1 hPa Calm   1.6 km/h 76 % 0.0 mm
23:22 18.5 °C 14.4 °C 1011.7 hPa Calm   3.2 km/h 77 % 0.0 mm
23:27 18.5 °C 14.2 °C 1011.7 hPa Calm   3.2 km/h 76 % 0.0 mm
23:32 18.4 °C 14.1 °C 1011.7 hPa Calm   3.2 km/h 76 % 0.0 mm
23:37 18.5 °C 14.0 °C 1011.7 hPa Calm   1.6 km/h 75 % 0.0 mm
23:42 18.5 °C 14.2 °C 1011.7 hPa Calm   1.6 km/h 76 % 0.0 mm
23:47 18.6 °C 14.1 °C 1011.7 hPa Calm   1.6 km/h 75 % 0.0 mm
23:52 18.7 °C 14.0 °C 1011.7 hPa WNW 1.6 km/h 1.6 km/h 74 % 0.0 mm
23:57 18.6 °C 14.1 °C 1011.7 hPa Calm   1.6 km/h 75 % 0.0 mm
Meteo18
Compliments of Weather Underground - 4 mb

Script developed by  Jim McMurry - jmcmurry@mwt.net Adapted for the template by  Wim van der Kuil - Leuven-Template.eu

You find our weather info also at:

European Weather Network

Weather Underground

Equipment we use:

Weather-station
Davis Vue

Weather-program
Meteohub

Weather-server
Raspberry PI 2 B+

Provider
1 and 1

Davis Vue

Meteohub

Raspberry PI 2 B+

1 and 1